Time;durP1;ratioP1;P1;durP2;ratioP2;P2;SDS_P1;SDS_P2;PMS_P1;PMS_P2;Temp;Humidity;BMP_temperature;BMP_pressure;BME280_temperature;BME280_humidity;BME280_pressure;Samples;Min_cycle;Max_cycle;Signal;HPM_P1;HPM_P2
2024/04/04 00:00:29;;;;;;;0.38;0.38;;;;;;;7.74;100.00;98742.66;5043527;28;20045;-59
2024/04/04 00:02:56;;;;;;;0.30;0.30;;;;;;;7.66;100.00;98744.88;5036327;28;20127;-58
2024/04/04 00:05:22;;;;;;;0.30;0.30;;;;;;;7.75;100.00;98738.94;5042625;28;20083;-58
2024/04/04 00:07:50;;;;;;;0.30;0.30;;;;;;;7.74;100.00;98747.19;5041659;28;20049;-58
2024/04/04 00:10:18;;;;;;;0.30;0.30;;;;;;;7.67;100.00;98746.53;5057649;28;20048;-58
2024/04/04 00:12:45;;;;;;;0.25;0.25;;;;;;;7.57;100.00;98750.59;5039723;28;20148;-58
2024/04/04 00:15:11;;;;;;;0.35;0.35;;;;;;;7.56;100.00;98748.13;5040670;28;20076;-58
2024/04/04 00:17:38;;;;;;;0.30;0.30;;;;;;;7.54;100.00;98748.41;5036115;28;20053;-58
2024/04/04 00:20:06;;;;;;;0.30;0.30;;;;;;;7.58;100.00;98743.38;5046634;28;20116;-58
2024/04/04 00:22:33;;;;;;;0.30;0.30;;;;;;;7.56;100.00;98738.31;5039264;28;20606;-58
2024/04/04 00:24:59;;;;;;;0.30;0.30;;;;;;;7.59;100.00;98741.53;5041329;28;21054;-58
2024/04/04 00:27:29;;;;;;;0.40;0.40;;;;;;;7.72;100.00;98741.28;5042148;28;20095;-58
2024/04/04 00:29:55;;;;;;;0.30;0.30;;;;;;;7.77;100.00;98728.06;5038513;28;20564;-58
2024/04/04 00:32:22;;;;;;;0.30;0.30;;;;;;;7.70;100.00;98735.38;5036292;28;20049;-58
2024/04/04 00:34:48;;;;;;;0.30;0.30;;;;;;;7.74;100.00;98728.53;5042584;28;20076;-58
2024/04/04 00:37:16;;;;;;;0.30;0.30;;;;;;;7.88;100.00;98731.72;5053469;28;20049;-58
2024/04/04 00:39:42;;;;;;;0.40;0.40;;;;;;;7.93;100.00;98724.63;5041443;28;20068;-58
2024/04/04 00:42:09;;;;;;;0.28;0.28;;;;;;;7.94;100.00;98722.78;5038735;28;20340;-58
2024/04/04 00:44:36;;;;;;;0.30;0.30;;;;;;;7.96;100.00;98718.84;5038619;28;20052;-58
2024/04/04 00:47:03;;;;;;;0.38;0.38;;;;;;;7.82;100.00;98712.16;5054510;28;20125;-58
2024/04/04 00:49:29;;;;;;;0.30;0.30;;;;;;;7.81;100.00;98718.50;5066573;28;20045;-58
2024/04/04 00:51:56;;;;;;;0.25;0.25;;;;;;;7.75;100.00;98708.81;5034193;28;20519;-56
2024/04/04 00:54:22;;;;;;;0.25;0.25;;;;;;;7.86;100.00;98710.63;5040046;28;20815;-58
2024/04/04 00:56:49;;;;;;;0.30;0.30;;;;;;;7.96;100.00;98704.66;5036703;28;20159;-58
2024/04/04 00:59:15;;;;;;;0.30;0.30;;;;;;;7.90;100.00;98700.28;5039581;28;20488;-58
2024/04/04 01:01:43;;;;;;;0.40;0.40;;;;;;;7.93;100.00;98692.59;5035278;28;20043;-58
2024/04/04 01:04:10;;;;;;;0.30;0.30;;;;;;;7.98;100.00;98691.88;5038373;28;20143;-58
2024/04/04 01:06:37;;;;;;;0.20;0.20;;;;;;;8.00;100.00;98693.28;5040685;28;20072;-58
2024/04/04 01:09:03;;;;;;;0.30;0.30;;;;;;;8.13;100.00;98686.03;5057000;28;20069;-58
2024/04/04 01:11:31;;;;;;;0.30;0.30;;;;;;;8.16;100.00;98682.88;5036266;28;20103;-58
2024/04/04 01:13:57;;;;;;;0.22;0.22;;;;;;;8.15;100.00;98676.72;5038581;28;20041;-58
2024/04/04 01:16:24;;;;;;;0.40;0.40;;;;;;;8.13;100.00;98678.03;5039965;28;20045;-58
2024/04/04 01:18:51;;;;;;;0.30;0.30;;;;;;;8.14;100.00;98680.47;5028766;28;20046;-58
2024/04/04 01:21:18;;;;;;;0.40;0.40;;;;;;;8.03;100.00;98672.50;5040687;28;20049;-58
2024/04/04 01:23:46;;;;;;;0.30;0.30;;;;;;;8.04;100.00;98674.94;5039211;28;20094;-58
2024/04/04 01:26:14;;;;;;;0.30;0.30;;;;;;;8.08;100.00;98681.41;5039355;28;20113;-58
2024/04/04 01:28:40;;;;;;;0.40;0.40;;;;;;;8.00;100.00;98668.44;5038354;28;20044;-58
2024/04/04 01:31:07;;;;;;;0.22;0.22;;;;;;;8.13;100.00;98667.34;5043362;28;20112;-58
2024/04/04 01:33:33;;;;;;;0.32;0.32;;;;;;;8.20;100.00;98666.13;5037894;28;20143;-58
2024/04/04 01:36:03;;;;;;;0.30;0.30;;;;;;;8.24;100.00;98652.31;5036204;28;20563;-58
2024/04/04 01:38:32;;;;;;;0.30;0.30;;;;;;;8.37;100.00;98652.81;5038678;28;20145;-58
2024/04/04 01:41:00;;;;;;;0.30;0.30;;;;;;;8.38;100.00;98654.41;5029754;28;20044;-58
2024/04/04 01:43:26;;;;;;;0.20;0.20;;;;;;;8.52;100.00;98654.16;5051592;28;20131;-58
2024/04/04 01:45:53;;;;;;;0.22;0.22;;;;;;;8.55;100.00;98642.97;5035997;28;20652;-58
2024/04/04 01:48:21;;;;;;;0.25;0.25;;;;;;;8.62;100.00;98649.78;5036037;28;20041;-58
2024/04/04 01:50:48;;;;;;;0.30;0.30;;;;;;;8.62;100.00;98646.28;5034345;28;20179;-58
2024/04/04 01:53:14;;;;;;;0.30;0.30;;;;;;;8.66;100.00;98636.72;5039841;28;20123;-58
2024/04/04 01:55:41;;;;;;;0.25;0.25;;;;;;;8.65;100.00;98637.78;5034240;28;20049;-58
2024/04/04 01:58:09;;;;;;;0.30;0.30;;;;;;;8.58;100.00;98632.59;5038390;28;20068;-58
2024/04/04 02:00:36;;;;;;;0.30;0.30;;;;;;;8.54;100.00;98626.16;5031542;28;20102;-58
2024/04/04 02:03:02;;;;;;;0.30;0.30;;;;;;;8.76;100.00;98614.69;5041574;28;20140;-58
2024/04/04 02:05:30;;;;;;;0.30;0.30;;;;;;;8.85;100.00;98606.00;5038902;28;20044;-58
2024/04/04 02:07:56;;;;;;;0.20;0.20;;;;;;;8.78;100.00;98604.56;5035103;28;20504;-58
2024/04/04 02:10:23;;;;;;;0.30;0.30;;;;;;;8.83;100.00;98608.13;5035419;28;20123;-58
2024/04/04 02:12:50;;;;;;;0.22;0.22;;;;;;;8.92;100.00;98610.38;5038394;28;20045;-58
2024/04/04 02:15:18;;;;;;;0.30;0.30;;;;;;;9.04;100.00;98608.41;5039310;28;20122;-58
2024/04/04 02:17:45;;;;;;;0.20;0.20;;;;;;;9.06;100.00;98598.25;5043526;28;20072;-58
2024/04/04 02:20:12;;;;;;;0.30;0.30;;;;;;;9.04;100.00;98603.06;5038314;28;20049;-58
2024/04/04 02:22:38;;;;;;;0.30;0.30;;;;;;;9.15;100.00;98604.00;5032928;28;20045;-59
2024/04/04 02:25:05;;;;;;;0.30;0.30;;;;;;;9.15;100.00;98594.09;5038133;28;20048;-58
2024/04/04 02:27:33;;;;;;;0.17;0.17;;;;;;;9.22;100.00;98593.94;5040721;28;20045;-57
2024/04/04 02:30:00;;;;;;;0.20;0.20;;;;;;;9.27;100.00;98592.13;5040554;28;20047;-58
2024/04/04 02:32:28;;;;;;;0.22;0.22;;;;;;;9.26;100.00;98595.88;5053006;28;20448;-57
2024/04/04 02:34:55;;;;;;;0.30;0.30;;;;;;;9.25;100.00;98591.56;5036798;28;21864;-57
2024/04/04 02:37:21;;;;;;;0.13;0.13;;;;;;;9.29;100.00;98579.31;5039707;28;20056;-57
2024/04/04 02:39:48;;;;;;;0.28;0.28;;;;;;;9.39;100.00;98577.81;5035300;28;20513;-58
2024/04/04 02:42:14;;;;;;;0.20;0.20;;;;;;;9.46;100.00;98579.25;5037990;28;20045;-57
2024/04/04 02:44:42;;;;;;;0.30;0.30;;;;;;;9.38;100.00;98565.50;5038242;28;20090;-58
2024/04/04 02:47:08;;;;;;;0.30;0.30;;;;;;;9.50;100.00;98558.94;5038396;28;20042;-57
2024/04/04 02:49:36;;;;;;;0.20;0.20;;;;;;;9.50;100.00;98574.19;5031616;28;20049;-57
2024/04/04 02:52:03;;;;;;;0.30;0.30;;;;;;;9.44;100.00;98562.63;5037438;28;20577;-58
2024/04/04 02:54:30;;;;;;;0.30;0.30;;;;;;;9.42;100.00;98566.63;5034226;28;20102;-57
2024/04/04 02:56:56;;;;;;;0.20;0.20;;;;;;;9.43;100.00;98562.88;5042042;28;20046;-58
2024/04/04 02:59:23;;;;;;;0.20;0.20;;;;;;;9.45;100.00;98556.22;5034933;28;20061;-58
2024/04/04 03:01:49;;;;;;;0.30;0.30;;;;;;;9.46;100.00;98551.66;5036881;28;20037;-58
2024/04/04 03:04:16;;;;;;;0.20;0.20;;;;;;;9.54;100.00;98553.91;5039134;28;20059;-57
2024/04/04 03:06:43;;;;;;;0.20;0.20;;;;;;;9.56;100.00;98545.63;5035221;28;20045;-58
2024/04/04 03:09:11;;;;;;;0.20;0.20;;;;;;;9.66;100.00;98549.22;5037986;28;20045;-57
2024/04/04 03:11:37;;;;;;;0.20;0.20;;;;;;;9.57;100.00;98550.72;5035971;28;20045;-58
2024/04/04 03:14:05;;;;;;;0.30;0.30;;;;;;;9.77;100.00;98552.00;5034176;28;20041;-57
2024/04/04 03:16:31;;;;;;;0.20;0.20;;;;;;;9.85;100.00;98556.88;5035619;28;20037;-57
2024/04/04 03:18:58;;;;;;;0.30;0.30;;;;;;;9.81;100.00;98558.44;5032290;28;20048;-57
2024/04/04 03:21:24;;;;;;;0.20;0.20;;;;;;;9.91;100.00;98563.91;5052645;28;20044;-57
2024/04/04 03:23:52;;;;;;;0.20;0.20;;;;;;;9.85;100.00;98560.34;5039802;28;20060;-58
2024/04/04 03:26:18;;;;;;;0.20;0.20;;;;;;;9.92;100.00;98555.59;5039586;28;20367;-57
2024/04/04 03:28:45;;;;;;;0.10;0.10;;;;;;;9.92;100.00;98557.47;5038342;28;20045;-57
2024/04/04 03:31:11;;;;;;;0.20;0.20;;;;;;;9.88;100.00;98556.34;5036698;28;20063;-62
2024/04/04 03:33:39;;;;;;;0.20;0.20;;;;;;;9.94;100.00;98555.34;5037981;28;20395;-57
2024/04/04 03:36:05;;;;;;;0.20;0.20;;;;;;;9.95;100.00;98548.94;5031550;28;20037;-58
2024/04/04 03:38:32;;;;;;;0.10;0.10;;;;;;;10.02;100.00;98549.53;5039850;28;20042;-57
2024/04/04 03:41:01;;;;;;;0.30;0.30;;;;;;;10.01;100.00;98537.22;5033003;28;20155;-58
2024/04/04 03:43:27;;;;;;;0.22;0.22;;;;;;;10.03;100.00;98540.41;5036570;28;20130;-58
2024/04/04 03:45:54;;;;;;;0.20;0.20;;;;;;;10.04;100.00;98541.25;5037998;28;20045;-58
2024/04/04 03:48:20;;;;;;;0.25;0.25;;;;;;;10.10;100.00;98530.31;5037787;28;20118;-58
2024/04/04 03:50:47;;;;;;;0.20;0.20;;;;;;;10.09;100.00;98539.41;5020025;28;20041;-57
2024/04/04 03:53:13;;;;;;;0.20;0.20;;;;;;;10.11;100.00;98531.94;5043896;28;20045;-57
2024/04/04 03:55:41;;;;;;;0.20;0.20;;;;;;;10.23;100.00;98533.63;5041826;28;20495;-57
2024/04/04 03:58:08;;;;;;;0.30;0.30;;;;;;;10.12;100.00;98525.50;5043702;28;20140;-57
2024/04/04 04:00:35;;;;;;;0.20;0.20;;;;;;;10.09;100.00;98520.69;5036504;28;20049;-57
2024/04/04 04:03:01;;;;;;;0.30;0.30;;;;;;;10.17;100.00;98522.06;5040533;28;20048;-57
2024/04/04 04:05:28;;;;;;;0.20;0.20;;;;;;;10.20;100.00;98528.78;5049206;28;20053;-57
2024/04/04 04:07:56;;;;;;;0.30;0.30;;;;;;;10.23;100.00;98520.22;5049229;28;20438;-60
2024/04/04 04:10:27;;;;;;;0.20;0.20;;;;;;;10.21;100.00;98520.50;5035530;28;20065;-57
2024/04/04 04:12:54;;;;;;;0.30;0.30;;;;;;;10.26;100.00;98525.91;5035946;28;20052;-57
2024/04/04 04:15:22;;;;;;;0.28;0.28;;;;;;;10.31;100.00;98514.44;5040899;28;20471;-59
2024/04/04 04:17:48;;;;;;;0.20;0.20;;;;;;;10.27;100.00;98514.09;5039435;28;20122;-59
2024/04/04 04:22:56;;;;;;;0.20;0.20;;;;;;;10.40;100.00;98514.75;5037953;28;20132;-59
2024/04/04 04:25:23;;;;;;;0.30;0.30;;;;;;;10.48;100.00;98508.91;5039191;28;20695;-59
2024/04/04 04:27:49;;;;;;;0.20;0.20;;;;;;;10.41;100.00;98508.31;5038847;28;20410;-59
2024/04/04 04:30:16;;;;;;;0.20;0.20;;;;;;;10.45;100.00;98502.19;5038759;28;20827;-59
2024/04/04 04:32:44;;;;;;;0.20;0.20;;;;;;;10.55;100.00;98504.91;5036669;28;20041;-59
2024/04/04 04:35:11;;;;;;;0.30;0.30;;;;;;;10.64;100.00;98504.44;5039196;28;20186;-59
2024/04/04 04:37:37;;;;;;;0.20;0.20;;;;;;;10.60;100.00;98498.00;5031844;28;20045;-59
2024/04/04 04:40:05;;;;;;;0.20;0.20;;;;;;;10.58;100.00;98500.91;5035260;28;20760;-60
2024/04/04 04:42:31;;;;;;;0.20;0.20;;;;;;;10.68;100.00;98487.56;5037250;28;20340;-59
2024/04/04 04:44:58;;;;;;;0.20;0.20;;;;;;;10.72;100.00;98493.22;5033679;28;20594;-59
2024/04/04 04:47:24;;;;;;;0.30;0.30;;;;;;;10.80;100.00;98482.78;5037519;28;20136;-59
2024/04/04 04:49:53;;;;;;;0.25;0.25;;;;;;;10.77;100.00;98485.22;5037268;28;20063;-59
2024/04/04 04:52:19;;;;;;;0.20;0.20;;;;;;;11.27;100.00;98467.66;5036681;28;20155;-59
2024/04/04 04:54:46;;;;;;;0.20;0.20;;;;;;;11.13;100.00;98478.09;5040750;28;20631;-59
2024/04/04 04:57:12;;;;;;;0.20;0.20;;;;;;;11.42;100.00;98467.69;5040236;28;20120;-59
2024/04/04 04:59:39;;;;;;;0.20;0.20;;;;;;;11.50;100.00;98469.03;5039662;28;20041;-59
2024/04/04 05:02:05;;;;;;;0.10;0.10;;;;;;;11.18;100.00;98469.25;5032729;28;20144;-59
2024/04/04 05:04:32;;;;;;;0.20;0.20;;;;;;;11.54;100.00;98463.97;5038239;28;20717;-59
2024/04/04 05:06:59;;;;;;;0.20;0.20;;;;;;;11.51;100.00;98465.28;5034564;28;20127;-59
2024/04/04 05:09:26;;;;;;;0.30;0.30;;;;;;;11.58;100.00;98462.31;5035812;28;20049;-59
2024/04/04 05:11:52;;;;;;;0.20;0.20;;;;;;;11.29;100.00;98454.00;5036377;28;20053;-59
2024/04/04 05:14:19;;;;;;;0.20;0.20;;;;;;;11.54;100.00;98448.66;5041102;28;20045;-59
2024/04/04 05:16:46;;;;;;;0.20;0.20;;;;;;;11.29;100.00;98443.25;5038898;28;20048;-59
2024/04/04 05:19:13;;;;;;;0.20;0.20;;;;;;;11.51;100.00;98440.34;5040197;28;20487;-59
2024/04/04 05:21:39;;;;;;;0.10;0.10;;;;;;;11.36;100.00;98441.94;5036106;28;20033;-59
2024/04/04 05:24:08;;;;;;;0.20;0.20;;;;;;;11.45;100.00;98442.19;5032040;28;20044;-59
2024/04/04 05:26:35;;;;;;;0.10;0.10;;;;;;;11.54;100.00;98434.44;5038216;28;20041;-59
2024/04/04 05:29:01;;;;;;;0.10;0.10;;;;;;;11.73;100.00;98438.19;5039621;28;20617;-59
2024/04/04 05:31:28;;;;;;;0.20;0.20;;;;;;;11.71;100.00;98434.97;5037557;28;20044;-59
2024/04/04 05:33:54;;;;;;;0.20;0.20;;;;;;;11.85;100.00;98430.66;5036598;28;20128;-59
2024/04/04 05:36:21;;;;;;;0.10;0.10;;;;;;;11.52;100.00;98431.22;5039244;28;20049;-59
2024/04/04 05:38:47;;;;;;;0.17;0.17;;;;;;;11.95;100.00;98435.22;5039638;28;20152;-60
2024/04/04 05:41:15;;;;;;;0.30;0.30;;;;;;;11.97;100.00;98440.34;5041281;28;20049;-59
2024/04/04 05:43:41;;;;;;;0.20;0.20;;;;;;;11.91;100.00;98438.75;5033952;28;20530;-59
2024/04/04 05:46:08;;;;;;;0.20;0.20;;;;;;;11.70;100.00;98435.22;5036464;28;20044;-59
2024/04/04 05:48:35;;;;;;;0.20;0.20;;;;;;;11.99;100.00;98441.69;5039769;28;20058;-59
2024/04/04 05:51:03;;;;;;;0.10;0.10;;;;;;;11.87;100.00;98428.53;5031211;28;20556;-59
2024/04/04 05:53:30;;;;;;;0.20;0.20;;;;;;;11.49;100.00;98429.06;5042669;28;20519;-60
2024/04/04 05:55:57;;;;;;;0.20;0.20;;;;;;;11.63;100.00;98428.28;5054048;28;20052;-59
2024/04/04 05:58:24;;;;;;;0.20;0.20;;;;;;;11.66;100.00;98427.72;5027738;28;20041;-59
2024/04/04 06:00:52;;;;;;;0.13;0.13;;;;;;;12.07;100.00;98424.22;5033135;28;20049;-59
2024/04/04 06:03:18;;;;;;;0.20;0.20;;;;;;;11.31;100.00;98425.84;5034357;28;20049;-59
2024/04/04 06:05:45;;;;;;;0.20;0.20;;;;;;;11.53;100.00;98422.91;5035676;28;20064;-60
2024/04/04 06:08:12;;;;;;;0.20;0.20;;;;;;;11.66;100.00;98417.00;5053305;28;20052;-59
2024/04/04 06:10:39;;;;;;;0.20;0.20;;;;;;;11.61;100.00;98408.13;5040082;28;20052;-59
2024/04/04 06:13:05;;;;;;;0.20;0.20;;;;;;;11.82;100.00;98412.41;5042498;28;20083;-59
2024/04/04 06:15:34;;;;;;;0.20;0.20;;;;;;;11.63;100.00;98400.59;5037122;28;20045;-59
2024/04/04 06:18:00;;;;;;;0.28;0.28;;;;;;;11.43;100.00;98410.28;5038587;28;20045;-59
2024/04/04 06:20:27;;;;;;;0.20;0.20;;;;;;;11.11;100.00;98407.84;5034551;28;20053;-59
2024/04/04 06:22:54;;;;;;;0.20;0.20;;;;;;;11.49;100.00;98405.72;5036492;28;20052;-59
2024/04/04 06:25:20;;;;;;;0.20;0.20;;;;;;;11.31;100.00;98404.38;5052916;28;21048;-59
2024/04/04 06:27:47;;;;;;;0.20;0.20;;;;;;;11.77;100.00;98395.50;5035379;28;20037;-59
2024/04/04 06:30:13;;;;;;;0.20;0.20;;;;;;;11.65;100.00;98388.50;5036651;28;20061;-59
2024/04/04 06:32:42;;;;;;;0.10;0.10;;;;;;;11.65;100.00;98401.13;5037501;28;20106;-59
2024/04/04 06:35:08;;;;;;;0.20;0.20;;;;;;;11.57;100.00;98385.59;5038860;28;20049;-59
2024/04/04 06:37:35;;;;;;;0.20;0.20;;;;;;;12.03;100.00;98383.69;5038863;28;20092;-59
2024/04/04 06:40:01;;;;;;;0.20;0.20;;;;;;;11.76;100.00;98394.69;5039453;28;20132;-59
2024/04/04 06:42:28;;;;;;;0.20;0.20;;;;;;;11.50;100.00;98385.03;5039121;28;20464;-59
2024/04/04 06:44:54;;;;;;;0.20;0.20;;;;;;;11.54;100.00;98386.13;5038998;28;20072;-59
2024/04/04 06:47:21;;;;;;;0.10;0.10;;;;;;;11.94;100.00;98388.00;5036495;28;20045;-59
2024/04/04 06:49:49;;;;;;;0.20;0.20;;;;;;;11.70;100.00;98376.19;5038762;28;20637;-59
2024/04/04 06:52:16;;;;;;;0.13;0.13;;;;;;;12.06;100.00;98372.38;5039919;28;20468;-59
2024/04/04 06:54:42;;;;;;;0.20;0.20;;;;;;;11.95;100.00;98370.00;5036711;28;20114;-59
2024/04/04 06:57:10;;;;;;;0.20;0.20;;;;;;;12.17;100.00;98370.47;5039248;28;20061;-60
2024/04/04 06:59:36;;;;;;;0.20;0.20;;;;;;;12.44;100.00;98377.38;5040004;28;20052;-59
2024/04/04 07:02:03;;;;;;;0.20;0.20;;;;;;;12.33;100.00;98371.25;5039451;28;20048;-57
2024/04/04 07:04:29;;;;;;;0.20;0.20;;;;;;;12.17;100.00;98366.97;5039500;28;20123;-59
2024/04/04 07:06:58;;;;;;;0.20;0.20;;;;;;;12.04;100.00;98368.38;5033094;28;20073;-59
2024/04/04 07:09:24;;;;;;;0.13;0.13;;;;;;;12.26;100.00;98371.53;5031318;28;20045;-59
2024/04/04 07:11:51;;;;;;;0.20;0.20;;;;;;;12.10;100.00;98367.25;5036081;28;20041;-56
2024/04/04 07:14:17;;;;;;;0.10;0.10;;;;;;;12.18;100.00;98382.84;5033966;28;20057;-60
2024/04/04 07:16:44;;;;;;;0.10;0.10;;;;;;;12.18;100.00;98372.09;5035606;28;20057;-59
2024/04/04 07:19:10;;;;;;;0.13;0.13;;;;;;;12.34;100.00;98367.47;5039171;28;20055;-59
2024/04/04 07:21:37;;;;;;;0.20;0.20;;;;;;;12.35;100.00;98360.19;5037901;28;20044;-59
2024/04/04 07:24:05;;;;;;;0.20;0.20;;;;;;;12.52;100.00;98368.72;5036094;28;20045;-59
2024/04/04 07:26:32;;;;;;;0.20;0.20;;;;;;;12.34;100.00;98363.97;5058370;28;20052;-60
2024/04/04 07:28:58;;;;;;;0.20;0.20;;;;;;;12.28;100.00;98366.69;5043539;28;20399;-60
2024/04/04 07:31:25;;;;;;;0.20;0.20;;;;;;;12.21;100.00;98360.78;5038563;28;20045;-59
2024/04/04 07:33:51;;;;;;;0.20;0.20;;;;;;;12.20;100.00;98372.59;5039175;28;20124;-59
2024/04/04 07:36:18;;;;;;;0.15;0.15;;;;;;;12.37;100.00;98366.91;5042159;28;20141;-59
2024/04/04 07:38:44;;;;;;;0.20;0.20;;;;;;;12.07;100.00;98362.44;5037386;28;20632;-59
2024/04/04 07:41:15;;;;;;;0.20;0.20;;;;;;;12.17;100.00;98367.78;5041808;28;20616;-59
2024/04/04 07:43:43;;;;;;;0.20;0.20;;;;;;;12.48;100.00;98367.66;5042219;28;20037;-59
2024/04/04 07:46:10;;;;;;;0.20;0.20;;;;;;;12.60;100.00;98364.66;5049212;28;20056;-59
2024/04/04 07:48:37;;;;;;;0.30;0.30;;;;;;;12.63;100.00;98359.53;5037938;28;20119;-59
2024/04/04 07:51:04;;;;;;;0.20;0.20;;;;;;;12.46;100.00;98364.47;5030004;28;20447;-59
2024/04/04 07:53:30;;;;;;;0.10;0.10;;;;;;;12.43;100.00;98362.31;5040197;28;20071;-59
2024/04/04 07:55:57;;;;;;;0.20;0.20;;;;;;;12.50;100.00;98352.06;5047949;28;21013;-59
2024/04/04 07:58:26;;;;;;;0.20;0.20;;;;;;;12.40;100.00;98376.28;5042636;28;20056;-58
2024/04/04 08:00:53;;;;;;;0.10;0.10;;;;;;;12.59;100.00;98371.13;5038579;28;20377;-59
2024/04/04 08:03:20;;;;;;;0.20;0.20;;;;;;;12.59;100.00;98369.22;5041102;28;20045;-59
2024/04/04 08:05:47;;;;;;;0.20;0.20;;;;;;;12.47;100.00;98382.19;5051475;28;20079;-59
2024/04/04 08:08:14;;;;;;;0.10;0.10;;;;;;;12.69;100.00;98385.31;5036344;28;20842;-59
2024/04/04 08:10:41;;;;;;;0.10;0.10;;;;;;;12.52;100.00;98376.78;5036930;28;20052;-59
2024/04/04 08:13:07;;;;;;;0.10;0.10;;;;;;;12.50;100.00;98393.22;5035169;28;20076;-58
2024/04/04 08:15:35;;;;;;;0.10;0.10;;;;;;;12.65;100.00;98391.50;5039653;28;20133;-59
2024/04/04 08:18:01;;;;;;;0.10;0.10;;;;;;;12.56;100.00;98390.50;5039196;28;20041;-59
2024/04/04 08:20:28;;;;;;;0.20;0.20;;;;;;;12.35;100.00;98398.63;5038808;28;20041;-59
2024/04/04 08:22:55;;;;;;;0.20;0.20;;;;;;;12.30;100.00;98407.53;5034442;28;20056;-59
2024/04/04 08:25:22;;;;;;;0.20;0.20;;;;;;;12.30;100.00;98415.59;5055123;28;20072;-59
2024/04/04 08:27:48;;;;;;;0.20;0.20;;;;;;;12.26;100.00;98416.41;5037013;28;20124;-59
2024/04/04 08:30:16;;;;;;;0.10;0.10;;;;;;;12.40;100.00;98413.91;5054524;28;21390;-59
2024/04/04 08:32:43;;;;;;;0.20;0.20;;;;;;;12.55;100.00;98424.59;5038545;28;20718;-59
2024/04/04 08:35:11;;;;;;;0.20;0.20;;;;;;;12.59;100.00;98420.31;5039669;28;20518;-59
2024/04/04 08:37:37;;;;;;;0.20;0.20;;;;;;;12.07;100.00;98432.28;5037898;28;20499;-59
2024/04/04 08:40:04;;;;;;;0.20;0.20;;;;;;;12.76;100.00;98428.03;5040391;28;20098;-59
2024/04/04 08:42:30;;;;;;;0.20;0.20;;;;;;;12.47;100.00;98425.19;5037627;28;20149;-59
2024/04/04 08:44:58;;;;;;;0.20;0.20;;;;;;;13.07;100.00;98450.19;5040269;28;20049;-59
2024/04/04 08:47:24;;;;;;;0.20;0.20;;;;;;;13.17;100.00;98450.13;5040509;28;20374;-59
2024/04/04 08:49:53;;;;;;;0.20;0.20;;;;;;;13.12;100.00;98462.81;5039190;28;20045;-59
2024/04/04 08:52:19;;;;;;;0.20;0.20;;;;;;;13.04;100.00;98472.28;5035947;28;20054;-59
2024/04/04 08:54:46;;;;;;;0.10;0.10;;;;;;;12.52;100.00;98465.47;5041739;28;20037;-58
2024/04/04 08:57:12;;;;;;;0.10;0.10;;;;;;;12.66;100.00;98463.03;5036368;28;20797;-59
2024/04/04 08:59:39;;;;;;;0.17;0.17;;;;;;;12.87;100.00;98458.38;5034662;28;20800;-59
2024/04/04 09:02:05;;;;;;;0.15;0.15;;;;;;;12.71;100.00;98458.44;5037628;28;20132;-59
2024/04/04 09:04:32;;;;;;;0.10;0.10;;;;;;;12.91;100.00;98448.66;5039694;28;20083;-61
2024/04/04 09:07:00;;;;;;;0.20;0.20;;;;;;;12.86;100.00;98443.31;5037035;28;20548;-59
2024/04/04 09:09:27;;;;;;;0.13;0.13;;;;;;;13.17;100.00;98449.31;5023265;28;20081;-60
2024/04/04 09:11:54;;;;;;;0.13;0.13;;;;;;;13.11;100.00;98445.88;5033207;28;20495;-58
2024/04/04 09:14:21;;;;;;;0.10;0.10;;;;;;;13.37;100.00;98453.81;5041656;28;20045;-59
2024/04/04 09:16:47;;;;;;;0.20;0.20;;;;;;;13.19;100.00;98446.38;5038590;28;20133;-59
2024/04/04 09:19:15;;;;;;;0.10;0.10;;;;;;;13.22;100.00;98451.19;5039019;28;20056;-58
2024/04/04 09:21:44;;;;;;;0.20;0.20;;;;;;;13.77;100.00;98463.47;5033351;28;20100;-59
2024/04/04 09:24:13;;;;;;;0.20;0.20;;;;;;;14.11;100.00;98462.66;5038260;28;20179;-59
2024/04/04 09:26:39;;;;;;;0.20;0.20;;;;;;;13.96;100.00;98457.41;5038750;28;20041;-59
2024/04/04 09:29:06;;;;;;;0.25;0.25;;;;;;;14.08;100.00;98448.91;5035764;28;20128;-59
2024/04/04 09:31:34;;;;;;;0.20;0.20;;;;;;;14.54;100.00;98456.56;5039138;28;20037;-59
2024/04/04 09:34:01;;;;;;;0.10;0.10;;;;;;;14.29;100.00;98463.00;5033788;28;20049;-59
2024/04/04 09:36:29;;;;;;;0.20;0.20;;;;;;;14.61;100.00;98465.94;5039825;28;20090;-59
2024/04/04 09:38:57;;;;;;;0.10;0.10;;;;;;;14.38;100.00;98466.72;5040016;28;20075;-59
2024/04/04 09:41:25;;;;;;;0.00;0.00;;;;;;;14.19;100.00;98472.00;5031383;28;20044;-60
2024/04/04 09:43:55;;;;;;;0.10;0.10;;;;;;;14.29;100.00;98469.22;5031933;28;20041;-59
2024/04/04 09:46:22;;;;;;;0.03;0.03;;;;;;;14.20;100.00;98481.69;5039067;28;20055;-59
2024/04/04 09:48:49;;;;;;;0.10;0.10;;;;;;;14.07;100.00;98493.13;5035768;28;20135;-59
2024/04/04 09:51:15;;;;;;;0.10;0.10;;;;;;;13.90;100.00;98472.78;5033760;28;20041;-59
2024/04/04 09:53:42;;;;;;;0.10;0.10;;;;;;;14.02;100.00;98475.91;5018720;28;20468;-59
2024/04/04 09:56:08;;;;;;;0.10;0.10;;;;;;;13.85;100.00;98462.06;5038362;28;20098;-59
2024/04/04 09:58:36;;;;;;;0.10;0.10;;;;;;;13.93;100.00;98471.44;5038688;28;20049;-59
2024/04/04 10:01:19;;;;;;;0.10;0.10;;;;;;;13.90;100.00;98478.16;5035148;28;20037;-59
2024/04/04 10:03:57;;;;;;;0.13;0.13;;;;;;;14.01;100.00;98481.59;5036049;28;20564;-58
2024/04/04 10:06:33;;;;;;;0.10;0.10;;;;;;;13.64;100.00;98479.47;5033848;28;20406;-58
2024/04/04 10:09:00;;;;;;;0.10;0.10;;;;;;;14.09;100.00;98490.97;5039201;28;20037;-59
2024/04/04 10:11:27;;;;;;;0.10;0.10;;;;;;;14.24;100.00;98504.28;5035672;28;20076;-58
2024/04/04 10:13:56;;;;;;;0.10;0.10;;;;;;;14.17;100.00;98514.59;5037341;28;20040;-59
2024/04/04 10:16:43;;;;;;;0.20;0.20;;;;;;;14.47;100.00;98508.09;5036141;28;20096;-58
2024/04/04 10:19:12;;;;;;;0.20;0.20;;;;;;;14.55;100.00;98507.53;5035731;28;20092;-59
2024/04/04 10:21:39;;;;;;;0.20;0.20;;;;;;;14.55;100.00;98509.41;5028170;28;20098;-59
2024/04/04 10:24:06;;;;;;;0.10;0.10;;;;;;;14.67;100.00;98523.31;5033667;28;20046;-59
2024/04/04 10:26:32;;;;;;;0.10;0.10;;;;;;;13.95;100.00;98523.94;5039184;28;20099;-57
2024/04/04 10:29:02;;;;;;;0.00;0.00;;;;;;;14.76;99.81;98527.00;5036229;28;20041;-57
2024/04/04 10:31:28;;;;;;;0.10;0.10;;;;;;;14.15;100.00;98524.84;5037522;28;20045;-59
2024/04/04 10:34:03;;;;;;;0.10;0.10;;;;;;;14.24;99.87;98520.47;5039082;28;20044;-57
2024/04/04 10:36:42;;;;;;;0.10;0.10;;;;;;;14.14;100.00;98524.06;5038623;28;20053;-57
2024/04/04 10:39:12;;;;;;;0.10;0.10;;;;;;;13.82;100.00;98529.97;5040583;28;20125;-57
2024/04/04 10:41:39;;;;;;;0.10;0.10;;;;;;;14.10;100.00;98522.19;5036842;28;20074;-58
2024/04/04 10:44:13;;;;;;;0.13;0.13;;;;;;;14.02;100.00;98513.63;5035502;28;20061;-59
2024/04/04 10:46:43;;;;;;;0.20;0.20;;;;;;;14.29;100.00;98536.59;5036763;28;20507;-59
2024/04/04 10:49:11;;;;;;;0.20;0.20;;;;;;;14.75;97.13;98536.19;5040617;28;20049;-59
2024/04/04 10:51:37;;;;;;;0.10;0.10;;;;;;;14.57;96.82;98534.19;5040685;28;20095;-58
2024/04/04 10:54:04;;;;;;;0.10;0.10;;;;;;;14.00;98.19;98544.63;5042641;28;20045;-57
2024/04/04 10:56:30;;;;;;;0.20;0.20;;;;;;;14.05;100.00;98549.19;5033863;28;20645;-58
2024/04/04 10:58:58;;;;;;;0.10;0.10;;;;;;;14.20;100.00;98557.97;5037947;28;20781;-58
2024/04/04 11:01:26;;;;;;;0.10;0.10;;;;;;;13.99;99.93;98554.63;5033785;28;20041;-57
2024/04/04 11:03:55;;;;;;;0.10;0.10;;;;;;;14.41;99.04;98547.00;5041075;28;20056;-57
2024/04/04 11:06:21;;;;;;;0.10;0.10;;;;;;;14.62;96.05;98542.22;5037368;28;20061;-58
2024/04/04 11:08:49;;;;;;;0.10;0.10;;;;;;;14.48;97.35;98552.03;5041058;28;20072;-58
2024/04/04 11:11:16;;;;;;;0.10;0.10;;;;;;;14.23;98.37;98540.44;5036971;28;20038;-58
2024/04/04 11:13:43;;;;;;;0.10;0.10;;;;;;;13.77;99.91;98543.47;5035922;28;20174;-58
2024/04/04 11:16:09;;;;;;;0.10;0.10;;;;;;;13.82;99.61;98535.34;5044051;28;20049;-57
2024/04/04 11:18:39;;;;;;;0.20;0.20;;;;;;;13.06;100.00;98534.69;5043223;28;20075;-57
2024/04/04 11:21:07;;;;;;;0.13;0.13;;;;;;;13.48;100.00;98540.66;5040682;28;20052;-57
2024/04/04 11:23:34;;;;;;;0.20;0.20;;;;;;;13.54;100.00;98551.16;5042794;28;20052;-57
2024/04/04 11:26:00;;;;;;;0.13;0.13;;;;;;;14.12;100.00;98546.97;5039963;28;20041;-58
2024/04/04 11:28:27;;;;;;;0.10;0.10;;;;;;;13.33;100.00;98533.50;5040860;28;20055;-58
2024/04/04 11:30:53;;;;;;;0.10;0.10;;;;;;;13.95;98.55;98550.06;5038210;28;20041;-58